sensor_id;sensor_type;location;lat;lon;timestamp;temperature;humidity
64499;SHT31;51087;55.718;21.122;2023-03-29T00:00:13;-0.57;74.76
64499;SHT31;51087;55.718;21.122;2023-03-29T00:02:39;-0.48;74.50
64499;SHT31;51087;55.718;21.122;2023-03-29T00:05:06;-0.44;73.91
64499;SHT31;51087;55.718;21.122;2023-03-29T00:07:32;-0.44;74.91
64499;SHT31;51087;55.718;21.122;2023-03-29T00:09:58;-0.51;73.81
64499;SHT31;51087;55.718;21.122;2023-03-29T00:12:24;-0.51;72.83
64499;SHT31;51087;55.718;21.122;2023-03-29T00:14:50;-0.61;73.62
64499;SHT31;51087;55.718;21.122;2023-03-29T00:17:15;-0.64;72.25
64499;SHT31;51087;55.718;21.122;2023-03-29T00:19:44;-0.68;71.42
64499;SHT31;51087;55.718;21.122;2023-03-29T00:22:11;-0.61;68.85
64499;SHT31;51087;55.718;21.122;2023-03-29T00:24:36;-0.69;70.61
64499;SHT31;51087;55.718;21.122;2023-03-29T00:27:02;-0.79;70.03
64499;SHT31;51087;55.718;21.122;2023-03-29T00:29:27;-0.89;70.78
64499;SHT31;51087;55.718;21.122;2023-03-29T00:31:53;-1.00;71.84
64499;SHT31;51087;55.718;21.122;2023-03-29T00:34:20;-1.09;72.02
64499;SHT31;51087;55.718;21.122;2023-03-29T00:36:46;-1.13;70.52
64499;SHT31;51087;55.718;21.122;2023-03-29T00:39:18;-1.15;70.40
64499;SHT31;51087;55.718;21.122;2023-03-29T00:41:46;-1.07;69.60
64499;SHT31;51087;55.718;21.122;2023-03-29T00:47:15;-1.03;69.78
64499;SHT31;51087;55.718;21.122;2023-03-29T00:49:43;-1.05;68.99
64499;SHT31;51087;55.718;21.122;2023-03-29T00:52:10;-1.03;68.49
64499;SHT31;51087;55.718;21.122;2023-03-29T00:54:38;-1.20;69.88
64499;SHT31;51087;55.718;21.122;2023-03-29T00:57:04;-1.13;68.24
64499;SHT31;51087;55.718;21.122;2023-03-29T00:59:31;-1.10;69.79
64499;SHT31;51087;55.718;21.122;2023-03-29T01:02:02;-1.09;69.98
64499;SHT31;51087;55.718;21.122;2023-03-29T01:04:38;-1.05;70.50
64499;SHT31;51087;55.718;21.122;2023-03-29T01:07:14;-1.20;71.32
64499;SHT31;51087;55.718;21.122;2023-03-29T01:09:49;-1.06;70.93
64499;SHT31;51087;55.718;21.122;2023-03-29T01:12:23;-1.07;72.17
64499;SHT31;51087;55.718;21.122;2023-03-29T01:14:58;-1.06;72.03
64499;SHT31;51087;55.718;21.122;2023-03-29T01:17:27;-0.97;71.38
64499;SHT31;51087;55.718;21.122;2023-03-29T01:20:03;-0.79;70.74
64499;SHT31;51087;55.718;21.122;2023-03-29T01:25:29;-0.75;69.68
64499;SHT31;51087;55.718;21.122;2023-03-29T01:28:05;-0.85;70.85
64499;SHT31;51087;55.718;21.122;2023-03-29T01:30:52;-0.97;72.51
64499;SHT31;51087;55.718;21.122;2023-03-29T01:33:21;-1.07;71.73
64499;SHT31;51087;55.718;21.122;2023-03-29T01:38:35;-0.92;70.83
64499;SHT31;51087;55.718;21.122;2023-03-29T01:41:03;-0.84;69.33
64499;SHT31;51087;55.718;21.122;2023-03-29T01:43:40;-0.68;68.36
64499;SHT31;51087;55.718;21.122;2023-03-29T01:46:26;-0.68;67.40
64499;SHT31;51087;55.718;21.122;2023-03-29T01:48:58;-0.86;68.87
64499;SHT31;51087;55.718;21.122;2023-03-29T01:51:37;-0.84;66.22
64499;SHT31;51087;55.718;21.122;2023-03-29T01:54:36;-0.92;67.59
64499;SHT31;51087;55.718;21.122;2023-03-29T01:57:04;-0.92;67.48
64499;SHT31;51087;55.718;21.122;2023-03-29T01:59:33;-0.92;66.89
64499;SHT31;51087;55.718;21.122;2023-03-29T02:02:01;-0.93;66.37
64499;SHT31;51087;55.718;21.122;2023-03-29T02:04:35;-1.06;68.03
64499;SHT31;51087;55.718;21.122;2023-03-29T02:07:04;-1.07;67.52
64499;SHT31;51087;55.718;21.122;2023-03-29T02:09:32;-1.17;69.40
64499;SHT31;51087;55.718;21.122;2023-03-29T02:12:01;-1.19;69.35
64499;SHT31;51087;55.718;21.122;2023-03-29T02:14:26;-1.46;70.70
64499;SHT31;51087;55.718;21.122;2023-03-29T02:16:53;-1.50;70.25
64499;SHT31;51087;55.718;21.122;2023-03-29T02:19:19;-1.60;70.51
64499;SHT31;51087;55.718;21.122;2023-03-29T02:22:06;-1.57;69.68
64499;SHT31;51087;55.718;21.122;2023-03-29T02:24:35;-1.61;69.97
64499;SHT31;51087;55.718;21.122;2023-03-29T02:27:01;-1.61;70.39
64499;SHT31;51087;55.718;21.122;2023-03-29T02:29:27;-1.62;70.32
64499;SHT31;51087;55.718;21.122;2023-03-29T02:32:08;-1.61;69.03
64499;SHT31;51087;55.718;21.122;2023-03-29T02:34:39;-1.67;69.17
64499;SHT31;51087;55.718;21.122;2023-03-29T02:37:09;-1.74;68.86
64499;SHT31;51087;55.718;21.122;2023-03-29T02:39:37;-1.64;68.54
64499;SHT31;51087;55.718;21.122;2023-03-29T02:42:04;-1.72;69.14
64499;SHT31;51087;55.718;21.122;2023-03-29T02:44:32;-1.72;69.12
64499;SHT31;51087;55.718;21.122;2023-03-29T02:47:02;-1.72;69.09
64499;SHT31;51087;55.718;21.122;2023-03-29T02:49:29;-1.85;69.40
64499;SHT31;51087;55.718;21.122;2023-03-29T02:51:56;-1.85;69.28
64499;SHT31;51087;55.718;21.122;2023-03-29T02:54:26;-1.92;70.84
64499;SHT31;51087;55.718;21.122;2023-03-29T02:56:58;-1.91;70.50
64499;SHT31;51087;55.718;21.122;2023-03-29T02:59:24;-1.86;69.95
64499;SHT31;51087;55.718;21.122;2023-03-29T03:01:50;-1.65;69.39
64499;SHT31;51087;55.718;21.122;2023-03-29T03:04:17;-1.70;70.34
64499;SHT31;51087;55.718;21.122;2023-03-29T03:06:45;-1.75;70.84
64499;SHT31;51087;55.718;21.122;2023-03-29T03:09:10;-1.83;72.20
64499;SHT31;51087;55.718;21.122;2023-03-29T03:11:35;-1.81;70.97
64499;SHT31;51087;55.718;21.122;2023-03-29T03:14:01;-1.88;72.63
64499;SHT31;51087;55.718;21.122;2023-03-29T03:16:26;-1.86;71.25
64499;SHT31;51087;55.718;21.122;2023-03-29T03:18:52;-2.00;72.27
64499;SHT31;51087;55.718;21.122;2023-03-29T03:21:20;-2.05;72.24
64499;SHT31;51087;55.718;21.122;2023-03-29T03:23:46;-1.96;71.22
64499;SHT31;51087;55.718;21.122;2023-03-29T03:26:14;-2.16;72.31
64499;SHT31;51087;55.718;21.122;2023-03-29T03:28:40;-2.07;71.06
64499;SHT31;51087;55.718;21.122;2023-03-29T03:31:06;-2.14;71.52
64499;SHT31;51087;55.718;21.122;2023-03-29T03:33:32;-2.23;71.97
64499;SHT31;51087;55.718;21.122;2023-03-29T03:35:58;-2.14;70.43
64499;SHT31;51087;55.718;21.122;2023-03-29T03:38:34;-2.25;71.40
64499;SHT31;51087;55.718;21.122;2023-03-29T03:41:00;-2.30;71.38
64499;SHT31;51087;55.718;21.122;2023-03-29T03:43:27;-2.46;73.07
64499;SHT31;51087;55.718;21.122;2023-03-29T03:45:53;-2.41;71.20
64499;SHT31;51087;55.718;21.122;2023-03-29T03:48:19;-2.57;73.87
64499;SHT31;51087;55.718;21.122;2023-03-29T03:50:55;-2.43;72.67
64499;SHT31;51087;55.718;21.122;2023-03-29T03:53:22;-2.56;74.02
64499;SHT31;51087;55.718;21.122;2023-03-29T03:55:52;-2.46;73.66
64499;SHT31;51087;55.718;21.122;2023-03-29T03:58:18;-2.34;73.33
64499;SHT31;51087;55.718;21.122;2023-03-29T04:00:46;-2.32;72.90
64499;SHT31;51087;55.718;21.122;2023-03-29T04:03:12;-2.37;73.53
64499;SHT31;51087;55.718;21.122;2023-03-29T04:05:42;-2.37;73.20
64499;SHT31;51087;55.718;21.122;2023-03-29T04:08:07;-2.48;73.88
64499;SHT31;51087;55.718;21.122;2023-03-29T04:10:34;-2.65;75.65
64499;SHT31;51087;55.718;21.122;2023-03-29T04:13:01;-2.51;74.89
64499;SHT31;51087;55.718;21.122;2023-03-29T04:15:27;-2.56;75.08
64499;SHT31;51087;55.718;21.122;2023-03-29T04:17:55;-2.54;74.65
64499;SHT31;51087;55.718;21.122;2023-03-29T04:20:20;-2.54;75.44
64499;SHT31;51087;55.718;21.122;2023-03-29T04:22:47;-2.57;75.67
64499;SHT31;51087;55.718;21.122;2023-03-29T04:25:12;-2.48;73.31
64499;SHT31;51087;55.718;21.122;2023-03-29T04:27:38;-2.54;73.57
64499;SHT31;51087;55.718;21.122;2023-03-29T04:30:07;-2.43;73.15
64499;SHT31;51087;55.718;21.122;2023-03-29T04:32:33;-2.26;71.40
64499;SHT31;51087;55.718;21.122;2023-03-29T04:34:59;-2.22;71.62
64499;SHT31;51087;55.718;21.122;2023-03-29T04:37:25;-2.18;70.75
64499;SHT31;51087;55.718;21.122;2023-03-29T04:39:52;-2.11;70.70
64499;SHT31;51087;55.718;21.122;2023-03-29T04:42:19;-2.13;71.54
64499;SHT31;51087;55.718;21.122;2023-03-29T04:44:44;-1.89;68.88
64499;SHT31;51087;55.718;21.122;2023-03-29T04:47:10;-1.92;69.06
64499;SHT31;51087;55.718;21.122;2023-03-29T04:49:39;-1.91;70.56
64499;SHT31;51087;55.718;21.122;2023-03-29T04:52:06;-1.86;69.59
64499;SHT31;51087;55.718;21.122;2023-03-29T04:54:31;-1.85;70.46
64499;SHT31;51087;55.718;21.122;2023-03-29T04:56:57;-1.83;71.94
64499;SHT31;51087;55.718;21.122;2023-03-29T04:59:22;-1.86;71.64
64499;SHT31;51087;55.718;21.122;2023-03-29T05:01:47;-1.79;71.42
64499;SHT31;51087;55.718;21.122;2023-03-29T05:04:13;-1.82;72.30
64499;SHT31;51087;55.718;21.122;2023-03-29T05:06:39;-1.71;72.52
64499;SHT31;51087;55.718;21.122;2023-03-29T05:09:04;-1.57;71.31
64499;SHT31;51087;55.718;21.122;2023-03-29T05:11:31;-1.47;70.54
64499;SHT31;51087;55.718;21.122;2023-03-29T05:13:56;-1.29;69.81
64499;SHT31;51087;55.718;21.122;2023-03-29T05:16:27;-1.21;68.16
64499;SHT31;51087;55.718;21.122;2023-03-29T05:18:57;-1.21;68.61
64499;SHT31;51087;55.718;21.122;2023-03-29T05:21:23;-1.32;69.56
64499;SHT31;51087;55.718;21.122;2023-03-29T05:23:50;-1.17;67.79
64499;SHT31;51087;55.718;21.122;2023-03-29T05:26:16;-1.21;70.32
64499;SHT31;51087;55.718;21.122;2023-03-29T05:28:41;-1.32;70.17
64499;SHT31;51087;55.718;21.122;2023-03-29T05:31:07;-1.19;69.67
64499;SHT31;51087;55.718;21.122;2023-03-29T05:33:33;-1.13;67.98
64499;SHT31;51087;55.718;21.122;2023-03-29T05:36:08;-1.16;70.24
64499;SHT31;51087;55.718;21.122;2023-03-29T05:38:35;-1.13;69.68
64499;SHT31;51087;55.718;21.122;2023-03-29T05:41:01;-1.07;68.50
64499;SHT31;51087;55.718;21.122;2023-03-29T05:43:27;-0.88;66.56
64499;SHT31;51087;55.718;21.122;2023-03-29T05:45:53;-0.85;67.55
64499;SHT31;51087;55.718;21.122;2023-03-29T05:48:22;-0.84;70.30
64499;SHT31;51087;55.718;21.122;2023-03-29T05:50:49;-0.58;66.94
64499;SHT31;51087;55.718;21.122;2023-03-29T05:53:16;-0.57;67.10
64499;SHT31;51087;55.718;21.122;2023-03-29T05:55:42;-0.38;65.07
64499;SHT31;51087;55.718;21.122;2023-03-29T05:58:08;-0.34;65.20
64499;SHT31;51087;55.718;21.122;2023-03-29T06:00:35;-0.31;64.69
64499;SHT31;51087;55.718;21.122;2023-03-29T06:03:02;-0.31;66.16
64499;SHT31;51087;55.718;21.122;2023-03-29T06:05:27;-0.24;67.54
64499;SHT31;51087;55.718;21.122;2023-03-29T06:07:53;-0.23;67.33
64499;SHT31;51087;55.718;21.122;2023-03-29T06:10:19;-0.12;65.41
64499;SHT31;51087;55.718;21.122;2023-03-29T06:12:45;0.01;63.73
64499;SHT31;51087;55.718;21.122;2023-03-29T06:15:11;0.02;65.16
64499;SHT31;51087;55.718;21.122;2023-03-29T06:17:38;-0.01;65.70
64499;SHT31;51087;55.718;21.122;2023-03-29T06:20:05;0.11;65.44
64499;SHT31;51087;55.718;21.122;2023-03-29T06:22:37;0.15;66.61
64499;SHT31;51087;55.718;21.122;2023-03-29T06:25:05;0.22;65.44
64499;SHT31;51087;55.718;21.122;2023-03-29T06:27:31;0.25;66.40
64499;SHT31;51087;55.718;21.122;2023-03-29T06:30:00;0.43;65.15
64499;SHT31;51087;55.718;21.122;2023-03-29T06:32:26;0.46;63.20
64499;SHT31;51087;55.718;21.122;2023-03-29T06:34:52;0.54;63.16
64499;SHT31;51087;55.718;21.122;2023-03-29T06:37:17;0.62;63.48
64499;SHT31;51087;55.718;21.122;2023-03-29T06:39:43;0.64;64.60
64499;SHT31;51087;55.718;21.122;2023-03-29T06:42:08;0.63;65.91
64499;SHT31;51087;55.718;21.122;2023-03-29T06:44:34;0.66;64.79
64499;SHT31;51087;55.718;21.122;2023-03-29T06:47:00;0.70;63.29
64499;SHT31;51087;55.718;21.122;2023-03-29T06:49:26;0.77;63.09
64499;SHT31;51087;55.718;21.122;2023-03-29T06:51:52;0.80;63.65
64499;SHT31;51087;55.718;21.122;2023-03-29T06:54:18;0.84;63.42
64499;SHT31;51087;55.718;21.122;2023-03-29T06:56:43;0.87;62.27
64499;SHT31;51087;55.718;21.122;2023-03-29T06:59:11;0.95;61.80
64499;SHT31;51087;55.718;21.122;2023-03-29T07:01:37;0.95;62.86
64499;SHT31;51087;55.718;21.122;2023-03-29T07:04:03;0.94;63.63
64499;SHT31;51087;55.718;21.122;2023-03-29T07:06:33;0.97;64.44
64499;SHT31;51087;55.718;21.122;2023-03-29T07:08:58;0.98;63.11
64499;SHT31;51087;55.718;21.122;2023-03-29T07:11:26;1.00;62.71
64499;SHT31;51087;55.718;21.122;2023-03-29T07:13:51;1.07;63.57
64499;SHT31;51087;55.718;21.122;2023-03-29T07:16:17;1.01;63.50
64499;SHT31;51087;55.718;21.122;2023-03-29T07:18:44;1.12;62.26
64499;SHT31;51087;55.718;21.122;2023-03-29T07:21:11;1.14;62.04
64499;SHT31;51087;55.718;21.122;2023-03-29T07:23:37;1.17;63.05
64499;SHT31;51087;55.718;21.122;2023-03-29T07:26:04;1.12;62.92
64499;SHT31;51087;55.718;21.122;2023-03-29T07:28:32;1.12;62.50
64499;SHT31;51087;55.718;21.122;2023-03-29T07:31:03;1.22;62.65
64499;SHT31;51087;55.718;21.122;2023-03-29T07:33:31;1.17;62.70
64499;SHT31;51087;55.718;21.122;2023-03-29T07:35:56;1.14;63.81
64499;SHT31;51087;55.718;21.122;2023-03-29T07:38:23;1.22;59.39
64499;SHT31;51087;55.718;21.122;2023-03-29T07:40:49;1.27;59.77
64499;SHT31;51087;55.718;21.122;2023-03-29T07:43:15;1.32;60.06
64499;SHT31;51087;55.718;21.122;2023-03-29T07:45:42;1.36;60.34
64499;SHT31;51087;55.718;21.122;2023-03-29T07:48:09;1.50;58.94
64499;SHT31;51087;55.718;21.122;2023-03-29T07:50:35;1.46;59.66
64499;SHT31;51087;55.718;21.122;2023-03-29T07:53:00;1.42;57.88
64499;SHT31;51087;55.718;21.122;2023-03-29T07:55:27;1.46;57.68
64499;SHT31;51087;55.718;21.122;2023-03-29T07:57:53;1.42;59.46
64499;SHT31;51087;55.718;21.122;2023-03-29T08:00:19;1.48;59.96
64499;SHT31;51087;55.718;21.122;2023-03-29T08:02:46;1.50;60.11
64499;SHT31;51087;55.718;21.122;2023-03-29T08:05:13;1.56;57.19
64499;SHT31;51087;55.718;21.122;2023-03-29T08:07:43;1.59;58.69
64499;SHT31;51087;55.718;21.122;2023-03-29T08:10:16;1.62;57.59
64499;SHT31;51087;55.718;21.122;2023-03-29T08:12:43;1.62;58.75
64499;SHT31;51087;55.718;21.122;2023-03-29T08:15:08;1.60;59.90
64499;SHT31;51087;55.718;21.122;2023-03-29T08:17:35;1.74;59.10
64499;SHT31;51087;55.718;21.122;2023-03-29T08:20:03;1.80;59.75
64499;SHT31;51087;55.718;21.122;2023-03-29T08:22:31;1.84;60.59
64499;SHT31;51087;55.718;21.122;2023-03-29T08:24:56;2.22;57.78
64499;SHT31;51087;55.718;21.122;2023-03-29T08:27:23;3.08;52.91
64499;SHT31;51087;55.718;21.122;2023-03-29T08:29:49;4.24;50.59
64499;SHT31;51087;55.718;21.122;2023-03-29T08:32:15;5.32;50.70
64499;SHT31;51087;55.718;21.122;2023-03-29T08:34:40;6.07;48.49
64499;SHT31;51087;55.718;21.122;2023-03-29T08:37:06;6.55;45.47
64499;SHT31;51087;55.718;21.122;2023-03-29T08:39:32;7.05;44.51
64499;SHT31;51087;55.718;21.122;2023-03-29T08:44:45;7.75;42.04
64499;SHT31;51087;55.718;21.122;2023-03-29T08:50:17;9.21;41.35
64499;SHT31;51087;55.718;21.122;2023-03-29T08:52:53;9.96;38.50
64499;SHT31;51087;55.718;21.122;2023-03-29T08:55:37;11.44;36.76
64499;SHT31;51087;55.718;21.122;2023-03-29T08:58:05;12.72;34.62
64499;SHT31;51087;55.718;21.122;2023-03-29T09:00:41;13.50;33.16
64499;SHT31;51087;55.718;21.122;2023-03-29T09:05:52;11.54;34.50
64499;SHT31;51087;55.718;21.122;2023-03-29T09:08:21;11.50;33.85
64499;SHT31;51087;55.718;21.122;2023-03-29T09:19:42;11.41;33.30
64499;SHT31;51087;55.718;21.122;2023-03-29T09:22:20;12.75;32.94
64499;SHT31;51087;55.718;21.122;2023-03-29T09:25:17;12.06;31.74
64499;SHT31;51087;55.718;21.122;2023-03-29T09:28:04;10.68;33.76
64499;SHT31;51087;55.718;21.122;2023-03-29T09:38:14;14.44;29.45
64499;SHT31;51087;55.718;21.122;2023-03-29T09:40:45;15.62;28.14
64499;SHT31;51087;55.718;21.122;2023-03-29T09:43:15;17.15;26.70
64499;SHT31;51087;55.718;21.122;2023-03-29T09:45:45;14.39;30.20
64499;SHT31;51087;55.718;21.122;2023-03-29T09:48:16;15.94;27.74
64499;SHT31;51087;55.718;21.122;2023-03-29T09:50:48;14.74;27.01
64499;SHT31;51087;55.718;21.122;2023-03-29T09:53:17;14.04;28.95
64499;SHT31;51087;55.718;21.122;2023-03-29T09:55:44;12.34;31.64
64499;SHT31;51087;55.718;21.122;2023-03-29T09:58:22;14.37;29.36
64499;SHT31;51087;55.718;21.122;2023-03-29T10:00:49;12.93;30.27
64499;SHT31;51087;55.718;21.122;2023-03-29T10:03:27;15.44;28.42
64499;SHT31;51087;55.718;21.122;2023-03-29T10:05:55;14.00;29.80
64499;SHT31;51087;55.718;21.122;2023-03-29T10:08:25;15.22;28.32
64499;SHT31;51087;55.718;21.122;2023-03-29T10:10:56;13.92;28.36
64499;SHT31;51087;55.718;21.122;2023-03-29T10:13:32;14.11;29.43
64499;SHT31;51087;55.718;21.122;2023-03-29T10:16:07;14.63;29.39
64499;SHT31;51087;55.718;21.122;2023-03-29T10:18:39;15.29;27.14
64499;SHT31;51087;55.718;21.122;2023-03-29T10:21:05;15.22;26.93
64499;SHT31;51087;55.718;21.122;2023-03-29T10:23:34;14.88;27.42
64499;SHT31;51087;55.718;21.122;2023-03-29T10:26:02;15.52;27.57
64499;SHT31;51087;55.718;21.122;2023-03-29T10:28:29;15.71;26.18
64499;SHT31;51087;55.718;21.122;2023-03-29T10:30:57;16.85;25.41
64499;SHT31;51087;55.718;21.122;2023-03-29T10:33:24;15.28;25.92
64499;SHT31;51087;55.718;21.122;2023-03-29T10:35:54;15.05;27.90
64499;SHT31;51087;55.718;21.122;2023-03-29T10:38:23;15.88;26.22
64499;SHT31;51087;55.718;21.122;2023-03-29T10:40:50;15.84;26.33
64499;SHT31;51087;55.718;21.122;2023-03-29T10:43:22;17.94;23.94
64499;SHT31;51087;55.718;21.122;2023-03-29T10:45:55;16.70;24.45
64499;SHT31;51087;55.718;21.122;2023-03-29T10:48:29;18.04;23.27
64499;SHT31;51087;55.718;21.122;2023-03-29T10:50:58;17.10;23.84
64499;SHT31;51087;55.718;21.122;2023-03-29T10:53:29;15.71;25.50
64499;SHT31;51087;55.718;21.122;2023-03-29T11:26:30;20.58;21.57
64499;SHT31;51087;55.718;21.122;2023-03-29T11:37:17;19.58;22.29
64499;SHT31;51087;55.718;21.122;2023-03-29T11:42:47;19.06;23.24
64499;SHT31;51087;55.718;21.122;2023-03-29T11:45:24;18.20;24.38
64499;SHT31;51087;55.718;21.122;2023-03-29T11:47:51;18.42;24.17
64499;SHT31;51087;55.718;21.122;2023-03-29T11:50:41;18.75;22.65
64499;SHT31;51087;55.718;21.122;2023-03-29T11:53:12;17.58;25.13
64499;SHT31;51087;55.718;21.122;2023-03-29T11:55:38;17.94;24.88
64499;SHT31;51087;55.718;21.122;2023-03-29T11:58:12;19.68;22.86
64499;SHT31;51087;55.718;21.122;2023-03-29T12:00:43;18.96;23.06
64499;SHT31;51087;55.718;21.122;2023-03-29T12:03:41;19.08;22.45
64499;SHT31;51087;55.718;21.122;2023-03-29T12:06:28;16.64;24.46
64499;SHT31;51087;55.718;21.122;2023-03-29T12:09:38;15.26;26.55
64499;SHT31;51087;55.718;21.122;2023-03-29T12:12:11;14.32;28.81
64499;SHT31;51087;55.718;21.122;2023-03-29T12:14:51;17.46;25.52
64499;SHT31;51087;55.718;21.122;2023-03-29T12:17:23;17.59;24.93
64499;SHT31;51087;55.718;21.122;2023-03-29T12:20:12;18.96;23.74
64499;SHT31;51087;55.718;21.122;2023-03-29T12:22:39;19.31;22.82
64499;SHT31;51087;55.718;21.122;2023-03-29T12:25:05;15.59;26.44
64499;SHT31;51087;55.718;21.122;2023-03-29T12:28:04;17.36;23.93
64499;SHT31;51087;55.718;21.122;2023-03-29T12:30:36;15.01;26.54
64499;SHT31;51087;55.718;21.122;2023-03-29T12:36:16;14.46;26.79
64499;SHT31;51087;55.718;21.122;2023-03-29T12:38:43;14.08;29.24
64499;SHT31;51087;55.718;21.122;2023-03-29T12:41:20;14.22;28.95
64499;SHT31;51087;55.718;21.122;2023-03-29T12:43:46;13.56;29.76
64499;SHT31;51087;55.718;21.122;2023-03-29T12:46:23;11.90;31.05
64499;SHT31;51087;55.718;21.122;2023-03-29T12:49:00;10.13;34.27
64499;SHT31;51087;55.718;21.122;2023-03-29T12:51:32;10.31;34.21
64499;SHT31;51087;55.718;21.122;2023-03-29T12:54:06;10.24;35.33
64499;SHT31;51087;55.718;21.122;2023-03-29T12:56:39;10.96;35.49
64499;SHT31;51087;55.718;21.122;2023-03-29T12:59:24;12.53;33.33
64499;SHT31;51087;55.718;21.122;2023-03-29T13:02:17;11.03;35.24
64499;SHT31;51087;55.718;21.122;2023-03-29T13:09:50;11.61;34.33
64499;SHT31;51087;55.718;21.122;2023-03-29T13:12:23;12.61;33.64
64499;SHT31;51087;55.718;21.122;2023-03-29T13:14:57;13.32;33.20
64499;SHT31;51087;55.718;21.122;2023-03-29T13:36:14;9.09;38.72
64499;SHT31;51087;55.718;21.122;2023-03-29T13:38:46;11.82;36.84
64499;SHT31;51087;55.718;21.122;2023-03-29T13:41:45;12.38;34.94
64499;SHT31;51087;55.718;21.122;2023-03-29T13:44:38;12.10;34.76
64499;SHT31;51087;55.718;21.122;2023-03-29T13:47:27;11.81;36.15
64499;SHT31;51087;55.718;21.122;2023-03-29T13:50:03;11.78;36.12
64499;SHT31;51087;55.718;21.122;2023-03-29T13:52:35;11.12;37.06
64499;SHT31;51087;55.718;21.122;2023-03-29T13:55:07;11.12;36.84
64499;SHT31;51087;55.718;21.122;2023-03-29T13:57:40;11.54;36.06
64499;SHT31;51087;55.718;21.122;2023-03-29T14:00:17;13.09;33.88
64499;SHT31;51087;55.718;21.122;2023-03-29T14:02:58;13.33;33.19
64499;SHT31;51087;55.718;21.122;2023-03-29T14:05:37;15.69;30.70
64499;SHT31;51087;55.718;21.122;2023-03-29T14:08:22;14.33;32.17
64499;SHT31;51087;55.718;21.122;2023-03-29T14:10:49;15.22;31.17
64499;SHT31;51087;55.718;21.122;2023-03-29T14:13:21;14.40;32.31
64499;SHT31;51087;55.718;21.122;2023-03-29T14:15:50;14.30;33.45
64499;SHT31;51087;55.718;21.122;2023-03-29T14:18:20;13.84;33.87
64499;SHT31;51087;55.718;21.122;2023-03-29T14:20:48;14.39;33.27
64499;SHT31;51087;55.718;21.122;2023-03-29T14:23:19;14.16;33.00
64499;SHT31;51087;55.718;21.122;2023-03-29T14:25:45;15.64;31.23
64499;SHT31;51087;55.718;21.122;2023-03-29T14:28:27;15.18;32.10
64499;SHT31;51087;55.718;21.122;2023-03-29T14:30:54;14.37;32.91
64499;SHT31;51087;55.718;21.122;2023-03-29T14:33:28;14.25;33.59
64499;SHT31;51087;55.718;21.122;2023-03-29T14:35:54;13.02;35.32
64499;SHT31;51087;55.718;21.122;2023-03-29T14:38:21;10.96;39.06
64499;SHT31;51087;55.718;21.122;2023-03-29T14:40:48;10.51;40.67
64499;SHT31;51087;55.718;21.122;2023-03-29T14:43:18;9.90;42.12
64499;SHT31;51087;55.718;21.122;2023-03-29T14:45:46;9.92;41.54
64499;SHT31;51087;55.718;21.122;2023-03-29T14:48:13;8.75;43.99
64499;SHT31;51087;55.718;21.122;2023-03-29T14:50:39;9.24;43.35
64499;SHT31;51087;55.718;21.122;2023-03-29T14:53:05;8.30;45.37
64499;SHT31;51087;55.718;21.122;2023-03-29T14:55:31;7.83;47.05
64499;SHT31;51087;55.718;21.122;2023-03-29T14:57:57;7.73;48.14
64499;SHT31;51087;55.718;21.122;2023-03-29T15:00:29;7.30;48.35
64499;SHT31;51087;55.718;21.122;2023-03-29T15:03:00;7.34;48.76
64499;SHT31;51087;55.718;21.122;2023-03-29T15:05:45;7.66;48.20
64499;SHT31;51087;55.718;21.122;2023-03-29T15:08:38;7.56;49.21
64499;SHT31;51087;55.718;21.122;2023-03-29T15:11:13;7.61;49.26
64499;SHT31;51087;55.718;21.122;2023-03-29T15:13:41;7.39;50.14
64499;SHT31;51087;55.718;21.122;2023-03-29T15:16:12;6.72;50.73
64499;SHT31;51087;55.718;21.122;2023-03-29T15:18:39;6.84;52.17
64499;SHT31;51087;55.718;21.122;2023-03-29T15:21:07;6.44;53.44
64499;SHT31;51087;55.718;21.122;2023-03-29T15:23:49;6.20;54.67
64499;SHT31;51087;55.718;21.122;2023-03-29T15:26:29;6.14;54.49
64499;SHT31;51087;55.718;21.122;2023-03-29T15:29:13;6.28;55.27
64499;SHT31;51087;55.718;21.122;2023-03-29T15:31:41;5.62;56.44
64499;SHT31;51087;55.718;21.122;2023-03-29T15:34:10;6.08;55.95
64499;SHT31;51087;55.718;21.122;2023-03-29T15:36:41;6.01;56.81
64499;SHT31;51087;55.718;21.122;2023-03-29T15:39:14;5.81;57.60
64499;SHT31;51087;55.718;21.122;2023-03-29T15:41:41;5.49;58.49
64499;SHT31;51087;55.718;21.122;2023-03-29T15:44:07;5.21;58.59
64499;SHT31;51087;55.718;21.122;2023-03-29T15:46:33;4.77;59.99
64499;SHT31;51087;55.718;21.122;2023-03-29T15:48:59;5.01;60.48
64499;SHT31;51087;55.718;21.122;2023-03-29T15:51:24;4.65;60.60
64499;SHT31;51087;55.718;21.122;2023-03-29T15:53:50;4.59;61.23
64499;SHT31;51087;55.718;21.122;2023-03-29T15:56:17;4.72;61.14
64499;SHT31;51087;55.718;21.122;2023-03-29T15:58:44;4.62;61.74
64499;SHT31;51087;55.718;21.122;2023-03-29T16:01:30;4.52;62.90
64499;SHT31;51087;55.718;21.122;2023-03-29T16:04:09;4.17;63.49
64499;SHT31;51087;55.718;21.122;2023-03-29T16:06:35;4.24;63.92
64499;SHT31;51087;55.718;21.122;2023-03-29T16:09:01;4.11;64.48
64499;SHT31;51087;55.718;21.122;2023-03-29T16:11:27;4.08;64.17
64499;SHT31;51087;55.718;21.122;2023-03-29T16:13:53;3.98;64.64
64499;SHT31;51087;55.718;21.122;2023-03-29T16:16:19;3.91;64.70
64499;SHT31;51087;55.718;21.122;2023-03-29T16:18:44;3.84;65.11
64499;SHT31;51087;55.718;21.122;2023-03-29T16:21:14;3.82;65.26
64499;SHT31;51087;55.718;21.122;2023-03-29T16:23:40;3.89;65.58
64499;SHT31;51087;55.718;21.122;2023-03-29T16:26:07;3.95;65.34
64499;SHT31;51087;55.718;21.122;2023-03-29T16:28:32;3.93;65.22
64499;SHT31;51087;55.718;21.122;2023-03-29T16:30:58;3.93;65.80
64499;SHT31;51087;55.718;21.122;2023-03-29T16:33:23;3.89;66.10
64499;SHT31;51087;55.718;21.122;2023-03-29T16:35:49;3.76;66.37
64499;SHT31;51087;55.718;21.122;2023-03-29T16:38:14;3.80;66.22
64499;SHT31;51087;55.718;21.122;2023-03-29T16:40:40;3.64;66.32
64499;SHT31;51087;55.718;21.122;2023-03-29T16:43:12;3.67;66.79
64499;SHT31;51087;55.718;21.122;2023-03-29T16:45:38;3.67;66.76
64499;SHT31;51087;55.718;21.122;2023-03-29T16:48:03;3.63;65.60
64499;SHT31;51087;55.718;21.122;2023-03-29T16:50:29;3.59;65.76
64499;SHT31;51087;55.718;21.122;2023-03-29T16:52:54;3.60;65.77
64499;SHT31;51087;55.718;21.122;2023-03-29T16:55:20;3.48;66.46
64499;SHT31;51087;55.718;21.122;2023-03-29T16:57:46;3.46;66.31
64499;SHT31;51087;55.718;21.122;2023-03-29T17:00:13;3.42;66.60
64499;SHT31;51087;55.718;21.122;2023-03-29T17:02:40;3.48;67.39
64499;SHT31;51087;55.718;21.122;2023-03-29T17:05:06;3.48;67.13
64499;SHT31;51087;55.718;21.122;2023-03-29T17:07:32;3.45;66.77
64499;SHT31;51087;55.718;21.122;2023-03-29T17:09:57;3.43;66.66
64499;SHT31;51087;55.718;21.122;2023-03-29T17:12:23;3.46;66.60
64499;SHT31;51087;55.718;21.122;2023-03-29T17:14:48;3.39;66.69
64499;SHT31;51087;55.718;21.122;2023-03-29T17:17:15;3.34;66.75